Time;durP1;ratioP1;P1;durP2;ratioP2;P2;SDS_P1;SDS_P2;PMS_P1;PMS_P2;Temp;Humidity;BMP_temperature;BMP_pressure;BME280_temperature;BME280_humidity;BME280_pressure;Samples;Min_cycle;Max_cycle;Signal;HPM_P1;HPM_P2
2022/05/11 00:01:33;;;;;;;3.65;0.90;;;;;;;15.88;22.20;98828.91;5031767;28;20049;-65
2022/05/11 00:04:00;;;;;;;3.53;1.10;;;;;;;15.83;22.15;98822.50;5031619;28;20497;-66
2022/05/11 00:06:27;;;;;;;3.92;1.15;;;;;;;15.84;22.23;98824.97;5015240;28;20060;-66
2022/05/11 00:08:53;;;;;;;1.75;1.05;;;;;;;15.81;22.06;98814.69;5033171;28;20037;-65
2022/05/11 00:11:20;;;;;;;1.55;0.95;;;;;;;15.79;22.07;98813.25;5033124;28;20494;-65
2022/05/11 00:13:46;;;;;;;1.42;1.00;;;;;;;15.78;22.02;98823.13;5015462;28;20597;-64
2022/05/11 00:16:12;;;;;;;2.90;0.95;;;;;;;15.78;22.14;98807.06;5032390;28;20041;-65
2022/05/11 00:18:38;;;;;;;5.63;1.13;;;;;;;15.79;22.25;98805.22;5031170;28;20255;-65
2022/05/11 00:21:04;;;;;;;5.15;1.10;;;;;;;15.75;22.26;98812.03;5031352;28;20441;-66
2022/05/11 00:23:30;;;;;;;3.75;1.30;;;;;;;15.76;22.46;98809.13;5014695;28;20045;-65
2022/05/11 00:25:56;;;;;;;4.40;0.80;;;;;;;15.77;22.15;98801.94;5031732;28;20041;-65
2022/05/11 00:28:21;;;;;;;2.20;1.00;;;;;;;15.72;22.41;98809.78;5015294;28;20038;-65
2022/05/11 00:30:48;;;;;;;4.97;1.10;;;;;;;15.78;22.38;98800.88;5031218;28;20136;-66
2022/05/11 00:33:15;;;;;;;1.92;0.90;;;;;;;15.88;22.30;98796.75;5032171;28;20103;-66
2022/05/11 00:35:42;;;;;;;3.67;1.10;;;;;;;15.66;22.14;98751.72;5031046;28;20053;-66
2022/05/11 00:38:09;;;;;;;2.92;1.10;;;;;;;15.79;22.15;98799.88;5031166;28;20038;-66
2022/05/11 00:40:43;;;;;;;5.03;1.00;;;;;;;15.90;22.13;98797.34;5031284;28;20108;-68
2022/05/11 00:43:09;;;;;;;2.47;1.00;;;;;;;15.74;22.30;98805.03;5031228;28;20049;-67
2022/05/11 00:45:36;;;;;;;2.05;0.80;;;;;;;15.71;22.15;98768.81;5014408;28;20100;-66
2022/05/11 00:49:33;;;;;;;2.30;0.93;;;;;;;15.85;22.31;98794.47;4998103;28;20095;-66
2022/05/11 00:50:52;;;;;;;1.67;0.95;;;;;;;15.73;22.24;98796.16;5057352;28;20110;-66
2022/05/11 00:53:17;;;;;;;1.33;1.08;;;;;;;15.64;22.17;98800.13;5029524;28;20909;-66
2022/05/11 00:55:48;;;;;;;1.63;1.13;;;;;;;15.81;22.17;98793.28;5028554;28;20044;-66
2022/05/11 00:58:19;;;;;;;1.63;0.82;;;;;;;15.90;22.23;98801.91;5029734;28;20060;-67
2022/05/11 01:00:45;;;;;;;5.28;0.90;;;;;;;15.72;22.34;98794.53;5028369;28;20084;-66
2022/05/11 01:03:16;;;;;;;1.58;1.00;;;;;;;15.74;22.14;98795.16;5028908;28;20064;-67
2022/05/11 01:05:43;;;;;;;4.72;0.73;;;;;;;15.70;22.25;98798.47;5030724;28;20049;-66
2022/05/11 01:08:09;;;;;;;3.08;1.00;;;;;;;15.59;22.57;98788.41;5030143;28;20045;-67
2022/05/11 01:10:35;;;;;;;5.82;1.38;;;;;;;15.56;22.63;98794.97;5014014;28;20060;-67
2022/05/11 01:13:05;;;;;;;2.55;0.88;;;;;;;15.67;22.56;98796.22;5030442;28;20127;-65
2022/05/11 01:15:32;;;;;;;3.40;1.27;;;;;;;15.62;22.58;98790.66;5013922;28;20049;-66
2022/05/11 01:17:58;;;;;;;1.40;1.13;;;;;;;15.58;22.36;98794.78;5033041;28;20049;-66
2022/05/11 01:20:25;;;;;;;8.05;1.33;;;;;;;15.65;22.51;98792.91;5050240;28;20405;-65
2022/05/11 01:22:56;;;;;;;2.22;1.30;;;;;;;15.73;22.51;98796.16;5051187;28;20497;-69
2022/05/11 01:25:23;;;;;;;2.47;0.98;;;;;;;15.56;22.48;98789.63;5051188;28;20044;-65
2022/05/11 01:27:49;;;;;;;5.15;1.15;;;;;;;15.31;22.64;98774.44;5033450;28;20056;-65
2022/05/11 01:30:21;;;;;;;3.85;1.10;;;;;;;15.41;22.44;98770.31;5033407;28;20037;-66
2022/05/11 01:32:49;;;;;;;3.75;1.10;;;;;;;15.50;22.63;98784.31;5033228;28;20048;-65
2022/05/11 01:35:33;;;;;;;2.95;0.98;;;;;;;15.61;22.41;98787.16;5051077;28;20134;-66
2022/05/11 01:38:38;;;;;;;2.40;0.98;;;;;;;15.57;22.45;98782.44;5033388;28;20048;-66
2022/05/11 01:41:04;;;;;;;2.25;1.25;;;;;;;15.27;22.81;98789.28;5047461;28;20099;-66
2022/05/11 01:43:35;;;;;;;6.57;1.00;;;;;;;15.29;22.91;98785.34;5033285;28;20041;-66
2022/05/11 01:46:01;;;;;;;2.58;1.25;;;;;;;15.19;22.71;98793.00;5051583;28;20456;-66
2022/05/11 01:48:27;;;;;;;4.28;0.98;;;;;;;15.18;22.72;98788.66;5051614;28;20049;-65
2022/05/11 01:50:53;;;;;;;2.67;0.80;;;;;;;15.11;23.00;98774.47;5050914;28;20049;-65
2022/05/11 01:53:19;;;;;;;1.35;0.95;;;;;;;15.19;22.91;98783.09;5050580;28;20137;-65
2022/05/11 01:55:45;;;;;;;2.38;1.10;;;;;;;15.17;22.90;98781.66;5050488;28;20041;-65
2022/05/11 01:58:11;;;;;;;1.33;0.88;;;;;;;15.23;23.15;98784.34;5050474;28;20574;-66
2022/05/11 02:00:39;;;;;;;2.28;1.00;;;;;;;15.24;22.90;98777.94;5050752;28;20045;-66
2022/05/11 02:03:06;;;;;;;4.40;1.08;;;;;;;15.16;22.96;98780.84;5050565;28;20037;-66
2022/05/11 02:08:16;;;;;;;5.15;1.50;;;;;;;15.18;22.96;98767.25;5050597;28;20504;-65
2022/05/11 02:10:42;;;;;;;4.03;1.00;;;;;;;15.08;22.88;98762.31;5049299;28;20047;-65
2022/05/11 02:13:08;;;;;;;2.25;1.02;;;;;;;15.04;23.20;98779.00;5050561;28;20048;-66
2022/05/11 02:15:36;;;;;;;4.50;1.40;;;;;;;15.12;23.13;98770.75;5050521;28;20066;-65
2022/05/11 02:18:03;;;;;;;2.55;1.02;;;;;;;15.17;23.05;98773.66;5050583;28;20446;-66
2022/05/11 02:20:29;;;;;;;3.50;1.02;;;;;;;15.13;23.01;98773.22;5050520;28;20127;-66
2022/05/11 02:22:55;;;;;;;1.80;0.88;;;;;;;15.13;23.08;98770.56;5032718;28;20183;-64
2022/05/11 02:25:21;;;;;;;3.55;1.10;;;;;;;15.15;23.08;98765.00;5050468;28;20121;-65
2022/05/11 02:27:48;;;;;;;1.17;0.80;;;;;;;15.25;23.04;98762.72;5050350;28;20041;-67
2022/05/11 02:30:23;;;;;;;3.38;1.00;;;;;;;15.30;23.05;98768.25;5050432;28;20512;-66
2022/05/11 02:32:48;;;;;;;1.98;1.15;;;;;;;15.13;23.05;98762.53;5050370;28;20048;-66
2022/05/11 02:35:18;;;;;;;2.05;0.93;;;;;;;15.03;22.93;98730.06;5049008;28;20041;-66
2022/05/11 02:37:51;;;;;;;2.65;0.93;;;;;;;15.36;22.77;98764.75;5034225;28;20044;-66
2022/05/11 02:40:23;;;;;;;1.63;1.08;;;;;;;15.38;22.83;98760.03;5056206;28;20052;-66
2022/05/11 02:42:49;;;;;;;4.22;1.50;;;;;;;15.12;22.84;98741.34;5038246;28;20124;-66
2022/05/11 02:45:16;;;;;;;1.42;0.95;;;;;;;15.24;22.78;98745.84;5037392;28;20045;-65
2022/05/11 02:47:43;;;;;;;2.33;1.00;;;;;;;15.37;22.86;98758.38;5038120;28;20041;-66
2022/05/11 02:50:11;;;;;;;5.97;1.00;;;;;;;15.34;22.94;98772.19;5038769;28;20434;-65
2022/05/11 02:52:37;;;;;;;5.32;1.20;;;;;;;15.31;22.66;98769.91;5072153;28;20562;-66
2022/05/11 02:55:03;;;;;;;2.33;0.93;;;;;;;15.39;22.74;98763.56;5039349;28;20123;-67
2022/05/11 02:57:29;;;;;;;1.40;0.90;;;;;;;15.38;22.61;98769.91;5039179;28;20135;-66
2022/05/11 02:59:54;;;;;;;2.58;1.20;;;;;;;15.39;22.53;98753.66;5056718;28;20398;-65
2022/05/11 03:02:21;;;;;;;2.38;1.10;;;;;;;15.42;22.55;98739.88;5038644;28;20415;-66
2022/05/11 03:04:49;;;;;;;1.88;0.90;;;;;;;15.66;22.47;98757.06;5057007;28;20037;-66
2022/05/11 03:07:15;;;;;;;3.95;1.00;;;;;;;15.57;22.15;98756.50;5055520;28;20505;-66
2022/05/11 03:09:41;;;;;;;2.35;0.90;;;;;;;15.62;22.37;98762.03;5022276;28;20072;-66
2022/05/11 03:12:07;;;;;;;3.60;1.10;;;;;;;15.71;22.05;98759.94;5056246;28;20145;-66
2022/05/11 03:14:33;;;;;;;2.47;0.80;;;;;;;15.73;22.05;98763.25;5039056;28;20045;-64
2022/05/11 03:16:59;;;;;;;2.67;1.10;;;;;;;15.75;22.18;98758.47;5022337;28;20045;-65
2022/05/11 03:19:25;;;;;;;2.95;1.00;;;;;;;15.76;22.09;98755.59;5056733;28;20382;-66
2022/05/11 03:21:52;;;;;;;1.77;1.00;;;;;;;15.92;21.87;98752.44;5038862;28;20047;-66
2022/05/11 03:24:18;;;;;;;3.13;1.10;;;;;;;16.02;21.77;98752.78;5039410;28;20040;-66
2022/05/11 03:26:44;;;;;;;4.28;1.05;;;;;;;15.91;21.91;98761.53;5056491;28;20051;-66
2022/05/11 03:29:11;;;;;;;3.13;1.15;;;;;;;15.98;21.80;98759.63;5054990;28;20065;-66
2022/05/11 03:31:37;;;;;;;3.20;1.25;;;;;;;15.95;21.98;98754.69;5038668;28;20048;-67
2022/05/11 03:36:49;;;;;;;5.00;1.50;;;;;;;15.81;21.76;98733.53;5040923;28;20049;-66
2022/05/11 03:39:15;;;;;;;4.97;1.60;;;;;;;16.06;21.73;98753.19;5038509;28;20060;-66
2022/05/11 03:41:42;;;;;;;4.20;1.80;;;;;;;16.01;21.74;98753.00;5038397;28;20056;-67
2022/05/11 03:44:08;;;;;;;5.53;2.20;;;;;;;16.05;21.66;98762.28;5021791;28;20915;-66
2022/05/11 03:46:34;;;;;;;3.85;1.73;;;;;;;16.02;21.78;98757.34;5038468;28;20049;-66
2022/05/11 03:48:59;;;;;;;5.75;1.75;;;;;;;16.09;21.61;98750.91;5054221;28;20041;-66
2022/05/11 03:51:32;;;;;;;6.18;1.80;;;;;;;16.09;21.52;98752.75;5035230;28;20053;-68
2022/05/11 03:53:58;;;;;;;4.93;2.10;;;;;;;16.15;21.60;98762.63;5052828;28;20749;-66
2022/05/11 03:56:24;;;;;;;3.72;2.00;;;;;;;16.05;21.42;98730.13;5035272;28;20040;-66
2022/05/11 03:58:50;;;;;;;6.28;2.47;;;;;;;16.23;21.32;98741.78;5002176;28;20049;-66
2022/05/11 04:01:15;;;;;;;5.40;2.08;;;;;;;16.36;21.30;98748.91;5030648;28;20047;-65
2022/05/11 04:03:42;;;;;;;5.38;1.85;;;;;;;16.56;21.27;98763.00;5051654;28;20452;-65
2022/05/11 04:06:08;;;;;;;7.60;2.00;;;;;;;16.50;21.01;98756.66;5034135;28;20527;-67
2022/05/11 04:08:34;;;;;;;3.03;1.80;;;;;;;16.59;20.84;98763.41;5034083;28;20052;-66
2022/05/11 04:11:00;;;;;;;5.32;1.60;;;;;;;16.67;20.73;98773.03;5033916;28;20045;-66
2022/05/11 04:13:26;;;;;;;3.22;1.77;;;;;;;16.73;20.79;98769.47;5050800;28;20563;-66
2022/05/11 04:15:52;;;;;;;3.83;1.30;;;;;;;16.83;20.53;98767.97;5033242;28;20056;-66
2022/05/11 04:18:19;;;;;;;2.75;1.35;;;;;;;16.81;20.30;98756.63;5051563;28;20497;-66
2022/05/11 04:20:45;;;;;;;3.50;1.33;;;;;;;16.53;20.50;98733.94;5051868;28;20055;-66
2022/05/11 04:23:11;;;;;;;3.90;1.15;;;;;;;16.85;20.35;98751.66;5033644;28;20036;-66
2022/05/11 04:25:37;;;;;;;2.97;1.25;;;;;;;16.64;20.20;98731.41;5033909;28;20044;-66
2022/05/11 04:28:07;;;;;;;2.85;1.20;;;;;;;17.02;20.08;98743.88;5051080;28;20045;-66
2022/05/11 04:30:34;;;;;;;3.95;1.27;;;;;;;16.94;20.12;98754.88;5016910;28;20494;-66
2022/05/11 04:33:00;;;;;;;5.72;1.20;;;;;;;17.11;20.06;98753.28;5049942;28;20045;-66
2022/05/11 04:35:30;;;;;;;2.92;1.35;;;;;;;17.19;19.78;98750.31;5032741;28;20091;-67
2022/05/11 04:38:05;;;;;;;9.05;1.92;;;;;;;17.35;19.57;98738.97;5051071;28;20044;-68
2022/05/11 04:40:31;;;;;;;8.40;1.60;;;;;;;17.27;19.73;98747.31;5017036;28;20095;-69
2022/05/11 04:42:57;;;;;;;5.78;1.10;;;;;;;17.36;19.64;98748.69;5033501;28;20045;-69
2022/05/11 04:45:23;;;;;;;1.67;1.13;;;;;;;17.47;19.55;98742.59;5016347;28;20041;-65
2022/05/11 04:47:49;;;;;;;3.85;1.30;;;;;;;17.46;19.36;98740.97;5032970;28;20045;-67
2022/05/11 04:50:16;;;;;;;4.63;1.20;;;;;;;17.48;19.45;98714.72;5032979;28;20045;-69
2022/05/11 04:52:42;;;;;;;3.25;1.20;;;;;;;17.32;19.33;98683.06;5032863;28;20574;-67
2022/05/11 04:55:10;;;;;;;3.47;1.15;;;;;;;17.73;19.26;98731.53;5000666;28;20397;-67
2022/05/11 04:57:38;;;;;;;1.70;1.20;;;;;;;17.90;19.11;98748.69;5033565;28;20041;-67
2022/05/11 05:00:26;;;;;;;8.02;1.55;;;;;;;18.02;18.93;98747.69;5008365;28;20095;-67
2022/05/11 05:02:52;;;;;;;5.20;1.33;;;;;;;18.10;18.74;98727.75;4999959;28;20049;-68
2022/05/11 05:05:19;;;;;;;3.20;1.38;;;;;;;18.15;18.56;98726.03;5050560;28;20067;-67
2022/05/11 05:07:45;;;;;;;2.83;1.30;;;;;;;18.22;18.72;98728.63;5016214;28;20136;-68
2022/05/11 05:10:13;;;;;;;4.32;1.23;;;;;;;18.32;18.42;98731.56;5031857;28;20561;-70
2022/05/11 05:12:40;;;;;;;8.07;1.20;;;;;;;18.41;18.47;98719.47;5029976;28;20067;-67
2022/05/11 05:15:07;;;;;;;4.43;1.40;;;;;;;18.45;18.45;98717.97;5048872;28;20052;-67
2022/05/11 05:17:33;;;;;;;7.60;1.52;;;;;;;18.54;18.19;98727.34;4998834;28;20041;-66
2022/05/11 05:19:59;;;;;;;7.00;1.73;;;;;;;18.57;18.25;98724.19;5016034;28;20131;-66
2022/05/11 05:22:25;;;;;;;6.65;1.38;;;;;;;18.73;17.99;98725.41;4983409;28;20614;-67
2022/05/11 05:24:50;;;;;;;5.05;1.40;;;;;;;18.83;17.81;98714.88;4999877;28;20614;-69
2022/05/11 05:27:18;;;;;;;3.58;1.15;;;;;;;18.97;17.71;98708.22;5016112;28;20550;-69
2022/05/11 05:32:38;;;;;;;5.88;1.20;;;;;;;19.40;17.08;98722.16;5032365;28;20497;-70
2022/05/11 05:35:12;;;;;;;5.15;1.42;;;;;;;19.48;17.04;98714.50;4999608;28;20415;-70
2022/05/11 05:37:38;;;;;;;4.35;1.08;;;;;;;19.36;17.00;98718.25;4999631;28;20045;-70
2022/05/11 05:40:05;;;;;;;2.33;1.08;;;;;;;19.52;16.92;98713.00;5032018;28;20140;-71
2022/05/11 05:42:31;;;;;;;9.35;1.27;;;;;;;19.60;16.74;98709.09;5032065;28;20049;-71
2022/05/11 05:44:57;;;;;;;5.85;1.55;;;;;;;19.65;16.51;98695.75;4999279;28;20044;-71
2022/05/11 05:47:23;;;;;;;6.13;1.50;;;;;;;19.91;16.05;98709.47;4998487;28;20063;-71
2022/05/11 05:49:49;;;;;;;2.58;1.10;;;;;;;19.95;16.04;98694.47;5030875;28;20501;-72
2022/05/11 05:52:25;;;;;;;4.25;1.33;;;;;;;20.35;15.89;98707.06;5013745;28;20048;-71
2022/05/11 05:54:54;;;;;;;8.52;1.42;;;;;;;20.42;15.64;98691.56;5027915;28;20048;-71
2022/05/11 05:57:21;;;;;;;5.45;1.40;;;;;;;20.41;15.56;98709.63;5030655;28;20041;-72
2022/05/11 05:59:48;;;;;;;3.95;1.00;;;;;;;20.46;15.43;98684.63;4998322;28;20163;-71
2022/05/11 06:02:16;;;;;;;7.68;1.30;;;;;;;20.63;15.27;98710.56;5013730;28;20033;-71
2022/05/11 06:04:44;;;;;;;3.70;1.17;;;;;;;20.81;15.10;98723.78;5021148;28;20045;-72
2022/05/11 06:07:13;;;;;;;12.40;1.58;;;;;;;20.92;14.96;98703.19;4998162;28;20128;-71
2022/05/11 06:09:40;;;;;;;6.35;1.40;;;;;;;21.01;14.85;98701.72;5012979;28;20532;-72
2022/05/11 06:12:07;;;;;;;10.27;1.30;;;;;;;20.87;14.87;98644.53;4998420;28;20131;-72
2022/05/11 06:14:33;;;;;;;2.85;1.20;;;;;;;21.21;14.88;98702.03;5013545;28;20048;-73
2022/05/11 06:17:01;;;;;;;6.57;1.30;;;;;;;21.12;14.49;98681.91;5004209;28;20037;-72
2022/05/11 06:19:28;;;;;;;7.70;1.27;;;;;;;21.29;14.58;98688.94;5028791;28;20044;-72
2022/05/11 06:21:54;;;;;;;11.10;1.33;;;;;;;21.46;14.62;98707.78;4993819;28;20059;-71
2022/05/11 06:24:20;;;;;;;5.63;1.15;;;;;;;21.54;14.33;98713.56;5013268;28;20047;-71
2022/05/11 06:26:46;;;;;;;6.70;1.30;;;;;;;21.65;14.50;98699.09;4981329;28;20824;-70
2022/05/11 06:29:12;;;;;;;2.55;1.00;;;;;;;21.88;13.92;98703.47;5005236;28;20206;-72
2022/05/11 06:31:38;;;;;;;4.90;1.17;;;;;;;21.87;14.13;98712.66;5014357;28;20040;-70
2022/05/11 06:34:04;;;;;;;10.18;1.27;;;;;;;21.97;14.28;98710.06;4981566;28;20052;-70
2022/05/11 06:36:30;;;;;;;3.83;1.60;;;;;;;22.06;13.81;98702.31;4997938;28;20531;-70
2022/05/11 06:38:57;;;;;;;3.70;1.10;;;;;;;22.25;13.83;98703.63;5006031;28;20048;-69
2022/05/11 06:41:26;;;;;;;3.15;1.17;;;;;;;22.40;13.63;98714.56;5012051;28;20068;-70
2022/05/11 06:43:52;;;;;;;8.23;1.55;;;;;;;22.44;13.90;98707.56;5013489;28;20690;-67
2022/05/11 06:46:19;;;;;;;4.75;1.20;;;;;;;22.49;13.62;98672.44;5048663;28;20139;-70
2022/05/11 06:48:46;;;;;;;6.80;1.45;;;;;;;22.84;13.52;98689.00;5014969;28;20148;-68
2022/05/11 06:51:12;;;;;;;3.08;1.60;;;;;;;23.26;13.41;98704.19;4997966;28;20560;-69
2022/05/11 06:59:20;;;;;;;6.90;1.73;;;;;;;23.68;12.98;98697.94;5017550;28;20040;-69
2022/05/11 07:01:57;;;;;;;4.63;1.50;;;;;;;23.95;13.15;98695.84;4997432;28;20041;-68
2022/05/11 07:04:24;;;;;;;4.10;1.25;;;;;;;24.28;13.07;98698.16;5001675;28;20501;-71
2022/05/11 07:06:54;;;;;;;7.25;1.52;;;;;;;24.63;12.36;98698.97;5013516;28;20448;-70
2022/05/11 07:09:22;;;;;;;3.63;1.38;;;;;;;24.91;12.27;98685.97;5011191;28;20048;-67
2022/05/11 07:14:34;;;;;;;3.28;1.50;;;;;;;25.90;11.82;98684.91;5015137;28;20052;-70
2022/05/11 07:16:59;;;;;;;4.30;1.60;;;;;;;26.27;11.21;98658.03;5010754;28;20037;-69
2022/05/11 07:19:25;;;;;;;6.35;1.65;;;;;;;27.23;10.94;98701.63;5029014;28;20060;-70
2022/05/11 07:21:52;;;;;;;10.95;1.63;;;;;;;27.89;10.10;98688.13;5013106;28;20040;-69
2022/05/11 07:24:18;;;;;;;9.95;1.80;;;;;;;28.56;9.75;98687.72;5015966;28;20417;-69
2022/05/11 07:26:44;;;;;;;13.10;2.88;;;;;;;29.13;10.00;98691.97;5001890;28;20041;-69
2022/05/11 07:29:10;;;;;;;12.43;3.03;;;;;;;30.22;9.81;98679.13;5001762;28;20213;-71
2022/05/11 07:31:37;;;;;;;8.55;2.38;;;;;;;30.93;9.11;98692.78;5037258;28;20865;-70
2022/05/11 07:34:03;;;;;;;9.82;2.03;;;;;;;31.13;8.53;98675.81;5021981;28;20048;-69
2022/05/11 07:36:28;;;;;;;7.13;2.22;;;;;;;31.22;8.55;98682.16;5054008;28;20048;-69
2022/05/11 07:38:55;;;;;;;8.32;2.13;;;;;;;31.09;8.40;98678.38;5032804;28;20052;-69
2022/05/11 07:41:21;;;;;;;11.07;2.25;;;;;;;31.33;7.59;98674.47;5000306;28;20036;-69
2022/05/11 07:43:47;;;;;;;9.07;3.28;;;;;;;31.95;7.96;98678.78;5000571;28;20040;-69
2022/05/11 07:46:13;;;;;;;8.02;1.52;;;;;;;32.06;7.30;98667.16;5033011;28;20174;-70
2022/05/11 07:48:39;;;;;;;6.13;1.50;;;;;;;31.60;7.27;98669.59;5016589;28;20127;-69
2022/05/11 07:51:05;;;;;;;9.02;1.30;;;;;;;31.24;7.07;98662.63;5007828;28;20049;-69
2022/05/11 07:53:32;;;;;;;3.70;1.33;;;;;;;31.00;7.35;98676.69;5032607;28;20061;-69
2022/05/11 08:01:27;;;;;;;9.48;1.70;;;;;;;30.41;7.35;98657.88;5027788;28;20029;-69
2022/05/11 08:03:53;;;;;;;11.48;1.50;;;;;;;30.58;7.17;98650.59;5014106;28;20047;-69
2022/05/11 08:06:21;;;;;;;10.18;1.70;;;;;;;31.07;7.05;98644.97;5013539;28;20488;-69
2022/05/11 08:08:47;;;;;;;7.10;1.50;;;;;;;31.83;6.66;98660.16;5029156;28;20142;-70
2022/05/11 08:11:13;;;;;;;6.47;1.50;;;;;;;32.35;6.32;98650.06;4995568;28;20045;-70
2022/05/11 08:13:39;;;;;;;10.45;1.65;;;;;;;32.74;6.19;98640.84;4980004;28;20125;-71
2022/05/11 08:16:05;;;;;;;15.38;1.70;;;;;;;33.17;5.40;98620.31;4964528;28;20206;-69
2022/05/11 08:18:31;;;;;;;6.53;1.75;;;;;;;33.45;5.43;98624.28;5013852;28;20921;-69
2022/05/11 08:20:57;;;;;;;12.35;1.40;;;;;;;33.43;5.33;98623.81;5001382;28;20140;-71
2022/05/11 08:23:22;;;;;;;4.93;1.65;;;;;;;33.53;5.60;98633.66;5014214;28;20137;-73
2022/05/11 08:25:51;;;;;;;9.98;1.92;;;;;;;33.28;5.58;98618.84;5016448;28;20053;-71
2022/05/11 08:28:21;;;;;;;10.25;1.70;;;;;;;33.36;5.91;98619.94;4999149;28;20132;-71
2022/05/11 08:33:38;;;;;;;10.18;1.52;;;;;;;33.56;5.58;98619.22;4998209;28;20042;-72
2022/05/11 08:36:07;;;;;;;13.15;1.83;;;;;;;33.73;5.66;98621.88;5007877;28;20136;-72
2022/05/11 08:38:39;;;;;;;8.82;1.60;;;;;;;34.09;5.04;98605.63;5003786;28;20045;-71
2022/05/11 08:41:12;;;;;;;9.32;1.80;;;;;;;34.52;4.65;98621.81;4995488;28;20076;-71
2022/05/11 08:43:41;;;;;;;6.82;1.83;;;;;;;34.90;4.86;98620.47;4999579;28;20131;-72
2022/05/11 08:46:20;;;;;;;9.60;1.65;;;;;;;35.48;4.66;98609.06;4998872;28;20049;-70
2022/05/11 08:48:56;;;;;;;6.00;1.65;;;;;;;36.05;4.15;98611.66;5031504;28;20061;-71
2022/05/11 08:51:35;;;;;;;8.63;1.58;;;;;;;36.27;3.87;98590.97;5015348;28;20048;-71
2022/05/11 08:54:28;;;;;;;7.57;1.40;;;;;;;36.62;4.07;98608.63;4998890;28;20052;-69
2022/05/11 08:56:55;;;;;;;6.00;1.42;;;;;;;36.62;4.10;98614.97;5016070;28;20055;-70
2022/05/11 08:59:30;;;;;;;9.05;1.73;;;;;;;36.79;3.67;98611.09;5016346;28;20055;-70
2022/05/11 09:02:06;;;;;;;11.10;2.13;;;;;;;36.89;3.66;98621.66;5032199;28;20140;-73
2022/05/11 09:04:41;;;;;;;11.25;1.98;;;;;;;36.57;3.90;98617.16;5015725;28;20127;-71
2022/05/11 09:07:09;;;;;;;8.23;1.75;;;;;;;35.96;4.14;98612.97;4999545;28;20048;-72
2022/05/11 09:09:35;;;;;;;10.10;2.00;;;;;;;35.61;4.59;98602.38;5015729;28;20106;-71
2022/05/11 09:12:01;;;;;;;12.65;2.17;;;;;;;35.80;4.33;98610.06;5015352;28;20835;-72
2022/05/11 09:14:39;;;;;;;6.40;1.60;;;;;;;35.96;4.28;98601.91;4999415;28;20143;-70
2022/05/11 09:17:13;;;;;;;6.57;1.60;;;;;;;35.74;4.63;98606.75;5016038;28;20092;-70
2022/05/11 09:19:39;;;;;;;8.90;1.83;;;;;;;35.43;4.46;98595.47;5033361;28;20057;-71
2022/05/11 09:22:13;;;;;;;14.88;2.13;;;;;;;35.57;4.85;98600.66;4999401;28;20041;-67
2022/05/11 09:24:54;;;;;;;9.75;2.08;;;;;;;35.43;4.74;98600.19;5015561;28;20095;-69
2022/05/11 09:27:22;;;;;;;8.88;2.20;;;;;;;35.18;5.02;98588.31;5032335;28;20460;-69
2022/05/11 09:29:57;;;;;;;8.07;1.70;;;;;;;35.36;5.00;98603.56;4998908;28;20136;-70
2022/05/11 09:32:35;;;;;;;12.10;2.15;;;;;;;35.41;4.97;98594.22;5015753;28;20055;-68
2022/05/11 09:35:20;;;;;;;5.57;1.77;;;;;;;35.40;5.04;98601.69;5040767;28;20103;-69
2022/05/11 09:38:10;;;;;;;5.75;1.38;;;;;;;35.45;4.82;98611.72;5032301;28;20044;-68
2022/05/11 09:40:59;;;;;;;6.70;1.50;;;;;;;35.47;4.89;98601.91;4982536;28;20132;-69
2022/05/11 09:43:46;;;;;;;6.20;2.00;;;;;;;35.29;4.92;98617.06;5032060;28;20040;-70
2022/05/11 09:46:22;;;;;;;9.90;2.03;;;;;;;34.92;5.23;98617.38;5031376;28;20131;-70
2022/05/11 09:49:10;;;;;;;5.40;1.70;;;;;;;34.53;5.01;98615.16;5046620;28;20237;-71
2022/05/11 09:51:57;;;;;;;6.05;2.00;;;;;;;33.88;5.31;98610.25;5031736;28;20102;-70
2022/05/11 09:54:48;;;;;;;8.15;1.75;;;;;;;33.35;5.62;98612.81;4998913;28;20049;-69
2022/05/11 09:57:20;;;;;;;4.72;1.40;;;;;;;32.71;6.02;98622.22;5032137;28;20142;-68
2022/05/11 09:59:49;;;;;;;4.32;1.70;;;;;;;32.24;6.33;98610.28;5032030;28;20041;-69
2022/05/11 10:02:32;;;;;;;12.88;1.80;;;;;;;32.39;6.28;98618.88;5031574;28;20056;-69
2022/05/11 10:05:07;;;;;;;6.32;1.50;;;;;;;32.43;6.18;98617.06;5047908;28;20421;-69
2022/05/11 10:07:37;;;;;;;6.50;1.70;;;;;;;32.18;6.22;98617.84;5044621;28;20908;-70
2022/05/11 10:10:12;;;;;;;2.22;1.42;;;;;;;32.40;6.53;98620.47;4979194;28;20118;-69
2022/05/11 10:12:39;;;;;;;12.45;1.35;;;;;;;32.37;6.37;98612.06;5013800;28;20048;-69
2022/05/11 10:23:54;;;;;;;3.97;1.48;;;;;;;32.51;6.36;98627.25;5046697;28;20040;-69
2022/05/11 10:26:28;;;;;;;5.93;1.60;;;;;;;32.69;6.27;98615.09;5014535;28;20110;-70
2022/05/11 10:28:55;;;;;;;4.90;1.73;;;;;;;32.70;6.28;98618.66;5015293;28;20041;-69
2022/05/11 10:31:23;;;;;;;7.22;1.80;;;;;;;32.77;6.26;98631.94;5032345;28;20488;-70
2022/05/11 10:34:17;;;;;;;7.38;1.40;;;;;;;32.85;5.95;98626.38;5069071;28;20056;-70
2022/05/11 10:36:55;;;;;;;5.32;1.42;;;;;;;32.82;5.83;98602.28;5068690;28;20098;-70
2022/05/11 10:39:24;;;;;;;5.30;1.55;;;;;;;32.86;6.20;98617.00;5050927;28;20079;-69
2022/05/11 10:42:00;;;;;;;4.60;1.73;;;;;;;32.63;6.23;98618.34;5067303;28;20060;-70
2022/05/11 10:44:25;;;;;;;4.50;1.60;;;;;;;32.46;6.21;98621.94;5050467;28;20044;-69
2022/05/11 10:46:51;;;;;;;8.15;1.70;;;;;;;32.36;6.45;98625.03;5051215;28;20082;-68
2022/05/11 10:49:22;;;;;;;5.57;1.67;;;;;;;32.20;6.56;98625.78;5069485;28;20456;-68
2022/05/11 10:52:35;;;;;;;3.28;1.92;;;;;;;32.10;6.62;98621.44;5068563;28;20049;-68
2022/05/11 10:55:30;;;;;;;;;;;;;;;32.18;6.55;98617.84;5031162;28;20055;-69
2022/05/11 10:58:01;;;;;;;7.78;1.95;;;;;;;32.08;7.00;98618.19;4997878;28;20389;-68
2022/05/11 11:00:31;;;;;;;6.68;1.70;;;;;;;32.02;6.96;98604.94;5073246;28;20059;-67
2022/05/11 11:02:56;;;;;;;8.23;2.10;;;;;;;31.82;6.82;98609.09;5072844;28;20052;-68
2022/05/11 11:05:26;;;;;;;8.27;1.70;;;;;;;31.56;6.92;98580.78;5072962;28;20044;-68
2022/05/11 11:08:07;;;;;;;6.22;1.80;;;;;;;31.56;6.86;98602.72;5054902;28;20408;-68
2022/05/11 11:10:36;;;;;;;5.13;1.77;;;;;;;31.16;7.22;98606.59;5072015;28;20037;-67
2022/05/11 11:13:42;;;;;;;8.32;2.15;;;;;;;30.85;7.70;98603.88;5054455;28;20052;-67
2022/05/11 11:16:12;;;;;;;4.10;1.50;;;;;;;30.55;7.95;98601.06;5071162;28;20048;-69
2022/05/11 11:18:44;;;;;;;3.08;1.48;;;;;;;30.19;7.80;98603.03;5050037;28;20055;-69
2022/05/11 11:21:13;;;;;;;6.30;1.60;;;;;;;29.69;8.04;98587.75;5030695;28;20041;-70
2022/05/11 11:23:43;;;;;;;11.30;1.73;;;;;;;29.44;8.31;98568.00;5010933;28;20047;-68
2022/05/11 11:26:12;;;;;;;2.72;1.50;;;;;;;29.37;8.30;98573.06;5013833;28;20511;-68
2022/05/11 11:28:40;;;;;;;6.45;1.83;;;;;;;29.22;8.73;98588.97;5013124;28;20132;-68
2022/05/11 11:31:09;;;;;;;6.90;1.85;;;;;;;29.33;8.79;98585.75;5012534;28;20075;-69
2022/05/11 11:33:39;;;;;;;8.10;1.60;;;;;;;29.27;8.70;98576.03;5010964;28;20049;-68
2022/05/11 11:36:34;;;;;;;9.70;1.73;;;;;;;29.35;9.02;98577.25;5029279;28;20092;-69
2022/05/11 11:39:03;;;;;;;7.30;1.75;;;;;;;29.22;8.88;98576.13;5003701;28;20048;-69
2022/05/11 11:41:31;;;;;;;4.53;1.80;;;;;;;28.87;9.18;98571.31;4995971;28;20508;-69
2022/05/11 11:44:00;;;;;;;4.38;1.60;;;;;;;28.76;9.18;98575.34;5029110;28;20049;-69
2022/05/11 11:46:30;;;;;;;5.22;1.50;;;;;;;28.76;9.47;98569.06;4996765;28;20112;-68
2022/05/11 11:49:07;;;;;;;4.30;1.63;;;;;;;28.58;9.88;98559.03;5024674;28;20029;-69
2022/05/11 11:52:06;;;;;;;9.13;1.60;;;;;;;28.59;9.74;98568.81;5012865;28;20075;-69
2022/05/11 11:54:38;;;;;;;6.28;1.60;;;;;;;28.54;9.90;98558.00;5028690;28;20521;-69
2022/05/11 11:57:04;;;;;;;4.00;1.45;;;;;;;28.22;9.89;98514.25;5028556;28;20758;-69
2022/05/11 11:59:29;;;;;;;4.78;1.70;;;;;;;28.58;9.83;98559.03;4995389;28;20041;-69
2022/05/11 12:01:59;;;;;;;6.47;1.80;;;;;;;28.70;9.70;98545.66;4997025;28;20115;-69
2022/05/11 12:04:38;;;;;;;5.43;1.63;;;;;;;28.82;9.82;98548.72;5029762;28;20581;-69
2022/05/11 12:15:59;;;;;;;6.55;1.50;;;;;;;28.37;10.22;98546.78;4993172;28;20042;-69
2022/05/11 12:18:32;;;;;;;5.75;1.63;;;;;;;28.31;10.35;98551.53;4997459;28;20144;-69
2022/05/11 12:20:58;;;;;;;7.55;1.45;;;;;;;28.05;10.17;98541.34;4996792;28;20037;-70
2022/05/11 12:23:29;;;;;;;4.80;2.53;;;;;;;28.02;10.21;98539.19;5013501;28;20107;-70
2022/05/11 12:25:58;;;;;;;4.30;1.77;;;;;;;27.94;10.29;98541.47;5029843;28;20087;-69
2022/05/11 12:28:38;;;;;;;2.67;1.30;;;;;;;28.00;10.30;98545.75;5013487;28;20103;-69
2022/05/11 12:31:04;;;;;;;4.07;1.85;;;;;;;27.81;10.46;98522.28;4996280;28;20041;-68